createdAt,value
2022-12-14T00:02:32.594Z,70.67
2022-12-14T00:07:35.321Z,70.34
2022-12-14T00:12:38.314Z,70.35
2022-12-14T00:17:40.949Z,71.22
2022-12-14T00:22:43.717Z,70.50
2022-12-14T00:27:47.284Z,70.18
2022-12-14T00:32:50.118Z,70.71
2022-12-14T00:37:52.994Z,70.81
2022-12-14T00:42:55.819Z,70.21
2022-12-14T00:47:59.322Z,69.98
2022-12-14T00:53:01.958Z,70.05
2022-12-14T00:58:04.769Z,70.58
2022-12-14T01:03:09.638Z,70.33
2022-12-14T01:08:15.199Z,70.51
2022-12-14T01:13:18.448Z,70.25
2022-12-14T01:18:21.118Z,70.14
2022-12-14T01:23:24.146Z,70.20
2022-12-14T01:28:27.117Z,69.70
2022-12-14T01:33:30.069Z,69.74
2022-12-14T01:38:33.107Z,69.89
2022-12-14T01:44:08.014Z,70.34
2022-12-14T01:49:31.607Z,70.33
2022-12-14T01:54:37.213Z,70.33
2022-12-14T01:59:42.556Z,70.21
2022-12-14T02:04:50.731Z,69.50
2022-12-14T02:09:55.121Z,70.14
2022-12-14T02:14:58.135Z,69.76
2022-12-14T02:20:00.858Z,70.50
2022-12-14T02:25:31.847Z,70.06
2022-12-14T02:30:40.197Z,70.35
2022-12-14T02:35:55.904Z,69.90
2022-12-14T02:41:02.704Z,69.64
2022-12-14T02:46:29.403Z,70.06
2022-12-14T02:51:41.304Z,70.10
2022-12-14T02:56:49.255Z,70.12
2022-12-14T03:01:52.905Z,69.87
2022-12-14T03:07:24.932Z,69.72
2022-12-14T03:12:27.945Z,69.80
2022-12-14T03:17:33.092Z,69.62
2022-12-14T03:22:42.644Z,69.92
2022-12-14T03:28:06.243Z,70.14
2022-12-14T03:33:14.170Z,69.86
2022-12-14T03:38:54.139Z,70.05
2022-12-14T03:44:29.454Z,70.07
2022-12-14T03:50:13.781Z,69.50
2022-12-14T03:55:28.537Z,69.87
2022-12-14T04:00:36.297Z,70.15
2022-12-14T04:06:03.612Z,69.93
2022-12-14T04:11:25.971Z,69.76
2022-12-14T04:16:52.710Z,69.68
2022-12-14T04:22:23.091Z,69.79
2022-12-14T04:27:37.176Z,70.02
2022-12-14T04:32:56.375Z,69.62
2022-12-14T04:38:10.156Z,69.85
2022-12-14T04:43:17.700Z,69.88
2022-12-14T04:48:30.001Z,69.52
2022-12-14T04:53:35.335Z,69.67
2022-12-14T04:58:38.764Z,70.00
2022-12-14T05:03:50.924Z,70.11
2022-12-14T05:09:22.800Z,69.90
2022-12-14T05:14:38.857Z,70.31
2022-12-14T05:19:51.499Z,70.06
2022-12-14T05:24:54.402Z,69.79
2022-12-14T05:29:57.272Z,70.16
2022-12-14T05:34:59.961Z,70.09
2022-12-14T05:40:02.740Z,70.43
2022-12-14T05:45:06.670Z,70.24
2022-12-14T05:50:09.554Z,69.82
2022-12-14T05:55:12.197Z,69.47
2022-12-14T06:00:15.849Z,70.33
2022-12-14T06:05:18.606Z,69.02
2022-12-14T06:10:21.231Z,69.87
2022-12-14T06:15:23.896Z,69.91
2022-12-14T06:20:27.693Z,70.25
2022-12-14T06:25:30.371Z,69.94
2022-12-14T06:30:33.041Z,70.00
2022-12-14T06:35:35.912Z,69.92
2022-12-14T06:40:38.617Z,69.88
2022-12-14T06:45:41.356Z,69.99
2022-12-14T06:50:44.082Z,70.00
2022-12-14T06:55:49.451Z,70.19
2022-12-14T07:00:52.220Z,69.67
2022-12-14T07:05:58.587Z,70.33
2022-12-14T07:11:05.783Z,70.45
2022-12-14T07:16:10.639Z,69.77
2022-12-14T07:21:15.166Z,69.99
2022-12-14T07:26:20.474Z,69.65
2022-12-14T07:31:25.196Z,70.51
2022-12-14T07:36:29.642Z,70.18
2022-12-14T07:41:32.819Z,70.11
2022-12-14T07:46:38.406Z,70.72
2022-12-14T07:51:46.137Z,70.42
2022-12-14T07:56:48.769Z,70.51
2022-12-14T08:01:53.694Z,70.33
2022-12-14T08:06:57.905Z,70.42
2022-12-14T08:12:00.596Z,70.11
2022-12-14T08:17:03.247Z,70.18
2022-12-14T08:22:05.926Z,70.36
2022-12-14T08:27:08.606Z,70.01
2022-12-14T08:32:11.487Z,70.82
2022-12-14T08:37:14.201Z,70.89
2022-12-14T08:42:16.911Z,69.96
2022-12-14T08:47:19.805Z,70.89
2022-12-14T08:52:22.749Z,70.58
2022-12-14T08:57:25.799Z,70.61
2022-12-14T09:02:28.627Z,70.64
2022-12-14T09:07:32.216Z,70.50
2022-12-14T09:12:35.911Z,71.17
2022-12-14T09:17:38.685Z,70.43
2022-12-14T09:22:41.423Z,71.28
2022-12-14T09:27:44.210Z,70.41
2022-12-14T09:32:50.697Z,71.42
2022-12-14T09:37:53.606Z,70.94
2022-12-14T09:43:01.727Z,71.41
2022-12-14T09:48:13.341Z,71.18
2022-12-14T09:53:16.540Z,70.81
2022-12-14T09:58:28.567Z,71.21
2022-12-14T10:03:37.738Z,71.42
2022-12-14T10:09:00.290Z,71.09
2022-12-14T10:14:42.628Z,71.34
2022-12-14T10:19:59.245Z,71.51
2022-12-14T10:25:05.877Z,70.98
2022-12-14T10:30:18.861Z,71.46
2022-12-14T10:35:34.997Z,71.16
2022-12-14T10:40:43.844Z,72.08
2022-12-14T10:46:19.333Z,71.21
2022-12-14T10:51:48.152Z,70.82
2022-12-14T10:56:51.678Z,70.74
2022-12-14T11:02:16.015Z,71.40
2022-12-14T11:07:37.207Z,71.02
2022-12-14T11:12:39.958Z,71.24
2022-12-14T11:17:44.622Z,71.68
2022-12-14T11:22:52.780Z,70.68
2022-12-14T11:27:55.743Z,71.75
2022-12-14T11:32:58.488Z,71.25
2022-12-14T11:38:01.824Z,70.56
2022-12-14T11:43:05.080Z,70.95
2022-12-14T11:48:22.005Z,71.17
2022-12-14T11:53:24.781Z,70.59
2022-12-14T11:58:37.020Z,71.00
2022-12-14T12:03:50.199Z,70.98
2022-12-14T12:08:58.201Z,71.03
2022-12-14T12:14:11.597Z,70.72
2022-12-14T12:19:25.635Z,71.27
2022-12-14T12:24:38.792Z,71.21
2022-12-14T12:29:57.826Z,71.45
2022-12-14T12:35:11.781Z,70.58
2022-12-14T12:40:23.471Z,70.74
2022-12-14T12:45:40.295Z,70.64
2022-12-14T12:50:50.279Z,71.10
2022-12-14T12:55:56.176Z,71.26
2022-12-14T13:01:01.476Z,71.15
2022-12-14T13:06:30.995Z,71.33
2022-12-14T13:11:39.176Z,70.58
2022-12-14T13:16:42.630Z,71.06
2022-12-14T13:21:51.306Z,71.11
2022-12-14T13:27:13.792Z,70.88
2022-12-14T13:32:51.353Z,71.22
2022-12-14T13:38:13.192Z,71.09
2022-12-14T13:43:51.922Z,70.89
2022-12-14T13:48:57.217Z,71.31
2022-12-14T13:54:03.335Z,71.20
2022-12-14T13:59:51.013Z,70.62
2022-12-14T14:05:15.252Z,70.49
2022-12-14T14:10:51.293Z,71.08
2022-12-14T14:21:52.554Z,70.37
2022-12-14T14:27:12.190Z,70.56
2022-12-14T14:32:44.308Z,70.89
2022-12-14T14:37:55.521Z,70.45
2022-12-14T14:43:06.340Z,70.93
2022-12-14T14:48:21.633Z,70.96
2022-12-14T14:53:31.119Z,70.62
2022-12-14T14:58:39.082Z,69.95
2022-12-14T15:03:54.113Z,70.74
2022-12-14T15:09:12.883Z,70.31
2022-12-14T15:14:35.937Z,70.11
2022-12-14T15:19:39.116Z,70.28
2022-12-14T15:24:43.763Z,70.13
2022-12-14T15:29:47.421Z,69.81
2022-12-14T15:34:59.416Z,70.26
2022-12-14T15:40:05.361Z,69.34
2022-12-14T15:45:14.994Z,69.73
2022-12-14T15:50:30.640Z,69.36
2022-12-14T15:55:39.761Z,69.21
2022-12-14T16:00:44.970Z,69.49
2022-12-14T16:05:47.952Z,68.99
2022-12-14T16:10:52.261Z,68.79
2022-12-14T16:15:57.118Z,68.09
2022-12-14T16:21:02.775Z,68.22
2022-12-14T16:26:14.830Z,68.36
2022-12-14T16:31:22.319Z,67.86
2022-12-14T16:36:26.125Z,68.10
2022-12-14T16:41:44.847Z,67.90
2022-12-14T16:47:29.024Z,67.69
2022-12-14T16:52:33.137Z,66.86
2022-12-14T16:57:36.269Z,67.75
2022-12-14T17:02:44.804Z,67.64
2022-12-14T17:07:47.850Z,67.28
2022-12-14T17:12:56.704Z,67.53
2022-12-14T17:18:00.534Z,67.34
2022-12-14T17:23:04.767Z,67.63
2022-12-14T17:28:18.983Z,67.26
2022-12-14T17:33:21.919Z,66.70
2022-12-14T17:38:24.834Z,66.97
2022-12-14T17:43:28.661Z,66.39
2022-12-14T17:48:31.952Z,66.81
2022-12-14T17:53:36.375Z,66.22
2022-12-14T17:58:39.189Z,66.81
2022-12-14T18:03:42.406Z,66.91
2022-12-14T18:08:46.277Z,66.45
2022-12-14T18:13:49.425Z,67.31
2022-12-14T18:18:56.529Z,66.35
2022-12-14T18:23:59.387Z,66.70
2022-12-14T18:29:02.187Z,67.13
2022-12-14T18:34:05.422Z,66.85
2022-12-14T18:39:08.303Z,66.56
2022-12-14T18:44:11.418Z,67.06
2022-12-14T18:49:14.187Z,67.22
2022-12-14T18:54:17.075Z,67.26
2022-12-14T18:59:19.924Z,67.33
2022-12-14T19:04:25.522Z,67.39
2022-12-14T19:09:28.310Z,67.42
2022-12-14T19:14:31.169Z,67.41
2022-12-14T19:19:39.485Z,67.88
2022-12-14T19:24:52.161Z,67.45
2022-12-14T19:29:55.399Z,67.61
2022-12-14T19:34:58.238Z,67.25
2022-12-14T19:40:02.839Z,67.71
2022-12-14T19:45:06.935Z,67.85
2022-12-14T19:50:11.414Z,67.50
2022-12-14T19:55:14.302Z,68.03
2022-12-14T20:00:17.260Z,67.81
2022-12-14T20:05:22.018Z,67.71
2022-12-14T20:10:25.005Z,67.94
2022-12-14T20:15:27.938Z,67.94
2022-12-14T20:20:32.458Z,67.69
2022-12-14T20:25:35.362Z,68.05
2022-12-14T20:30:44.335Z,67.20
2022-12-14T20:35:51.961Z,67.88
2022-12-14T20:40:54.931Z,67.43
2022-12-14T20:45:57.943Z,67.89
2022-12-14T20:51:04.065Z,67.38
2022-12-14T20:56:09.215Z,66.99
2022-12-14T21:01:15.731Z,66.98
2022-12-14T21:06:20.758Z,66.96
2022-12-14T21:11:42.339Z,66.79
2022-12-14T21:16:45.193Z,66.47
2022-12-14T21:21:53.297Z,66.05
2022-12-14T21:26:56.909Z,65.69
2022-12-14T21:31:59.872Z,65.58
2022-12-14T21:37:02.663Z,65.28
2022-12-14T21:42:13.287Z,65.39
2022-12-14T21:47:17.299Z,65.25
2022-12-14T21:52:23.049Z,66.17
2022-12-14T21:57:49.973Z,66.25
2022-12-14T22:02:53.550Z,66.08
2022-12-14T22:07:56.379Z,65.64
2022-12-14T22:12:59.070Z,65.62
2022-12-14T22:18:01.780Z,65.27
2022-12-14T22:23:04.683Z,65.93
2022-12-14T22:28:07.396Z,64.98
2022-12-14T22:33:10.427Z,65.57
2022-12-14T22:38:13.090Z,65.44
2022-12-14T22:43:15.770Z,65.12
2022-12-14T22:48:18.560Z,64.25
2022-12-14T22:53:21.328Z,64.47
2022-12-14T22:58:24.891Z,64.54
2022-12-14T23:03:28.002Z,64.39
2022-12-14T23:08:31.150Z,63.83
2022-12-14T23:13:52.261Z,64.77
2022-12-14T23:19:13.490Z,64.27
2022-12-14T23:24:34.742Z,65.03
2022-12-14T23:29:56.553Z,64.51
2022-12-14T23:35:17.827Z,64.48
2022-12-14T23:40:38.743Z,64.11
2022-12-14T23:46:01.987Z,64.62
2022-12-14T23:51:23.576Z,64.41
2022-12-14T23:56:45.005Z,64.34
